createdAt,value
2023-09-18T00:00:13.702Z,100.00
2023-09-18T00:01:16.285Z,100.00
2023-09-18T00:02:18.395Z,100.00
2023-09-18T00:03:22.696Z,100.00
2023-09-18T00:04:24.941Z,100.00
2023-09-18T00:05:27.358Z,100.00
2023-09-18T00:06:29.452Z,100.00
2023-09-18T00:07:31.718Z,100.00
2023-09-18T00:08:35.586Z,100.00
2023-09-18T00:09:38.403Z,100.00
2023-09-18T00:10:41.343Z,100.00
2023-09-18T00:11:43.305Z,100.00
2023-09-18T00:12:45.228Z,100.00
2023-09-18T00:13:47.264Z,100.00
2023-09-18T00:14:51.060Z,100.00
2023-09-18T00:15:55.751Z,100.00
2023-09-18T00:16:59.464Z,100.00
2023-09-18T00:18:02.618Z,100.00
2023-09-18T00:19:05.114Z,100.00
2023-09-18T00:20:08.526Z,100.00
2023-09-18T00:21:11.793Z,100.00
2023-09-18T00:22:13.929Z,100.00
2023-09-18T00:23:15.896Z,100.00
2023-09-18T00:24:17.872Z,100.00
2023-09-18T00:25:19.930Z,100.00
2023-09-18T00:26:23.109Z,100.00
2023-09-18T00:27:25.223Z,100.00
2023-09-18T00:28:27.370Z,100.00
2023-09-18T00:29:30.417Z,100.00
2023-09-18T00:30:33.051Z,100.00
2023-09-18T00:31:34.991Z,100.00
2023-09-18T00:32:39.103Z,100.00
2023-09-18T00:33:41.435Z,100.00
2023-09-18T00:34:43.589Z,100.00
2023-09-18T00:35:47.022Z,100.00
2023-09-18T00:36:49.472Z,100.00
2023-09-18T00:37:52.843Z,100.00
2023-09-18T00:38:55.039Z,100.00
2023-09-18T00:39:57.148Z,100.00
2023-09-18T00:40:59.359Z,100.00
2023-09-18T00:42:01.356Z,100.00
2023-09-18T00:43:03.629Z,100.00
2023-09-18T00:44:08.293Z,100.00
2023-09-18T00:45:10.598Z,100.00
2023-09-18T00:46:13.196Z,100.00
2023-09-18T00:47:17.525Z,100.00
2023-09-18T00:48:20.410Z,100.00
2023-09-18T00:49:24.725Z,100.00
2023-09-18T00:50:29.023Z,100.00
2023-09-18T00:51:33.022Z,100.00
2023-09-18T00:52:35.426Z,100.00
2023-09-18T00:53:38.459Z,100.00
2023-09-18T00:54:41.249Z,100.00
2023-09-18T00:55:44.502Z,100.00
2023-09-18T00:56:48.985Z,100.00
2023-09-18T00:57:53.676Z,100.00
2023-09-18T00:58:55.855Z,100.00
2023-09-18T00:59:58.405Z,100.00
2023-09-18T01:01:03.480Z,100.00
2023-09-18T01:02:05.968Z,100.00
2023-09-18T01:03:10.147Z,100.00
2023-09-18T01:04:13.162Z,100.00
2023-09-18T01:05:16.478Z,100.00
2023-09-18T01:06:20.081Z,100.00
2023-09-18T01:07:22.177Z,100.00
2023-09-18T01:08:24.235Z,100.00
2023-09-18T01:09:27.595Z,100.00
2023-09-18T01:10:36.268Z,100.00
2023-09-18T01:11:56.972Z,100.00
2023-09-18T01:13:08.840Z,100.00
2023-09-18T01:14:23.858Z,100.00
2023-09-18T01:15:29.767Z,100.00
2023-09-18T01:17:58.546Z,100.00
2023-09-18T01:19:00.680Z,100.00
2023-09-18T01:20:04.828Z,100.00
2023-09-18T01:21:06.860Z,100.00
2023-09-18T01:22:10.643Z,100.00
2023-09-18T01:23:12.745Z,100.00
2023-09-18T01:24:14.873Z,100.00
2023-09-18T01:25:17.113Z,100.00
2023-09-18T01:26:19.187Z,100.00
2023-09-18T01:27:24.497Z,100.00
2023-09-18T01:28:26.404Z,100.00
2023-09-18T01:29:28.357Z,100.00
2023-09-18T01:30:32.477Z,100.00
2023-09-18T01:31:35.378Z,100.00
2023-09-18T01:32:38.653Z,100.00
2023-09-18T01:33:43.644Z,100.00
2023-09-18T01:34:48.765Z,100.00
2023-09-18T01:35:54.465Z,100.00
2023-09-18T01:36:58.253Z,100.00
2023-09-18T01:38:01.244Z,100.00
2023-09-18T01:39:04.559Z,100.00
2023-09-18T01:40:08.629Z,100.00
2023-09-18T01:41:10.910Z,100.00
2023-09-18T01:42:13.530Z,100.00
2023-09-18T01:43:19.128Z,100.00
2023-09-18T01:44:21.329Z,100.00
2023-09-18T01:45:23.521Z,100.00
2023-09-18T01:46:26.896Z,100.00
2023-09-18T01:47:28.882Z,100.00
2023-09-18T01:48:31.103Z,100.00
2023-09-18T01:49:36.014Z,100.00
2023-09-18T01:50:38.368Z,100.00
2023-09-18T01:51:40.367Z,100.00
2023-09-18T01:52:42.386Z,100.00
2023-09-18T01:53:44.321Z,100.00
2023-09-18T01:54:47.928Z,100.00
2023-09-18T01:55:49.874Z,100.00
2023-09-18T01:56:52.701Z,100.00
2023-09-18T01:57:54.623Z,100.00
2023-09-18T01:58:56.534Z,100.00
2023-09-18T01:59:59.157Z,100.00
2023-09-18T02:01:02.048Z,100.00
2023-09-18T02:02:07.227Z,100.00
2023-09-18T02:03:21.008Z,100.00
2023-09-18T02:04:30.885Z,100.00
2023-09-18T02:05:19.758Z,100.00
2023-09-18T02:06:22.291Z,100.00
2023-09-18T02:07:24.389Z,100.00
2023-09-18T02:08:26.580Z,100.00
2023-09-18T02:09:28.574Z,100.00
2023-09-18T02:10:30.621Z,100.00
2023-09-18T02:11:32.569Z,99.96
2023-09-18T02:12:35.826Z,100.00
2023-09-18T02:13:37.752Z,100.00
2023-09-18T02:14:39.723Z,100.00
2023-09-18T02:15:41.736Z,100.00
2023-09-18T02:16:44.151Z,100.00
2023-09-18T02:17:46.237Z,100.00
2023-09-18T02:18:49.175Z,100.00
2023-09-18T02:19:51.075Z,100.00
2023-09-18T02:20:53.100Z,100.00
2023-09-18T02:21:57.384Z,100.00
2023-09-18T02:22:59.443Z,100.00
2023-09-18T02:24:03.497Z,99.96
2023-09-18T02:25:06.616Z,99.99
2023-09-18T02:26:08.813Z,99.78
2023-09-18T02:27:10.807Z,100.00
2023-09-18T02:28:12.885Z,99.99
2023-09-18T02:29:15.233Z,99.77
2023-09-18T02:30:19.298Z,99.77
2023-09-18T02:31:23.231Z,99.74
2023-09-18T02:32:25.395Z,99.65
2023-09-18T02:33:28.003Z,100.00
2023-09-18T02:34:30.478Z,100.00
2023-09-18T02:35:32.723Z,100.00
2023-09-18T02:36:35.171Z,100.00
2023-09-18T02:37:38.388Z,100.00
2023-09-18T02:38:42.392Z,100.00
2023-09-18T02:39:44.359Z,100.00
2023-09-18T02:40:46.566Z,100.00
2023-09-18T02:41:48.998Z,100.00
2023-09-18T02:42:51.309Z,100.00
2023-09-18T02:43:53.393Z,100.00
2023-09-18T02:44:57.600Z,100.00
2023-09-18T02:45:59.647Z,100.00
2023-09-18T02:47:01.783Z,100.00
2023-09-18T02:48:05.078Z,100.00
2023-09-18T02:49:07.192Z,100.00
2023-09-18T02:50:10.698Z,100.00
2023-09-18T02:51:13.084Z,100.00
2023-09-18T02:52:15.116Z,100.00
2023-09-18T02:53:19.801Z,100.00
2023-09-18T02:54:22.030Z,100.00
2023-09-18T02:55:24.239Z,100.00
2023-09-18T02:56:26.599Z,100.00
2023-09-18T02:57:28.621Z,100.00
2023-09-18T02:58:30.752Z,100.00
2023-09-18T02:59:33.050Z,100.00
2023-09-18T03:00:43.855Z,100.00
2023-09-18T03:01:39.383Z,100.00
2023-09-18T03:02:41.460Z,100.00
2023-09-18T03:03:43.855Z,100.00
2023-09-18T03:04:46.178Z,100.00
2023-09-18T03:05:48.320Z,100.00
2023-09-18T03:06:50.365Z,100.00
2023-09-18T03:07:52.456Z,100.00
2023-09-18T03:08:54.680Z,100.00
2023-09-18T03:09:56.766Z,100.00
2023-09-18T03:10:59.425Z,100.00
2023-09-18T03:12:01.917Z,100.00
2023-09-18T03:13:05.809Z,100.00
2023-09-18T03:14:07.876Z,100.00
2023-09-18T03:15:10.547Z,100.00
2023-09-18T03:16:13.657Z,100.00
2023-09-18T03:17:15.865Z,100.00
2023-09-18T03:18:20.465Z,100.00
2023-09-18T03:19:22.613Z,100.00
2023-09-18T03:20:27.284Z,100.00
2023-09-18T03:21:29.353Z,100.00
2023-09-18T03:22:31.641Z,100.00
2023-09-18T03:23:34.198Z,100.00
2023-09-18T03:24:36.523Z,100.00
2023-09-18T03:25:48.853Z,99.64
2023-09-18T03:26:42.435Z,99.61
2023-09-18T03:27:45.617Z,99.55
2023-09-18T03:28:48.123Z,99.60
2023-09-18T03:29:50.112Z,99.38
2023-09-18T03:30:52.340Z,99.09
2023-09-18T03:31:54.266Z,98.71
2023-09-18T03:32:56.430Z,98.46
2023-09-18T03:33:58.450Z,98.27
2023-09-18T03:35:00.446Z,98.23
2023-09-18T03:36:02.977Z,98.29
2023-09-18T03:37:04.983Z,98.20
2023-09-18T03:38:07.103Z,98.41
2023-09-18T03:39:09.950Z,98.42
2023-09-18T03:40:14.015Z,98.29
2023-09-18T03:41:16.142Z,98.44
2023-09-18T03:42:18.176Z,98.39
2023-09-18T03:43:20.224Z,98.48
2023-09-18T03:44:22.202Z,98.49
2023-09-18T03:45:24.202Z,98.56
2023-09-18T03:46:26.448Z,98.57
2023-09-18T03:47:28.408Z,98.57
2023-09-18T03:48:31.652Z,98.77
2023-09-18T03:49:36.604Z,98.79
2023-09-18T03:50:41.156Z,98.80
2023-09-18T03:51:43.890Z,98.75
2023-09-18T03:52:45.820Z,98.82
2023-09-18T03:53:47.768Z,98.69
2023-09-18T03:54:49.865Z,98.76
2023-09-18T03:55:51.805Z,98.75
2023-09-18T03:56:53.945Z,98.55
2023-09-18T03:57:55.954Z,98.52
2023-09-18T03:58:57.884Z,98.09
2023-09-18T03:59:59.770Z,98.07
2023-09-18T04:01:02.088Z,98.06
2023-09-18T04:02:04.724Z,98.01
2023-09-18T04:03:06.928Z,98.16
2023-09-18T04:04:09.146Z,98.17
2023-09-18T04:05:11.241Z,98.46
2023-09-18T04:06:13.611Z,98.87
2023-09-18T04:07:15.659Z,98.89
2023-09-18T04:08:18.680Z,99.11
2023-09-18T04:09:22.952Z,99.24
2023-09-18T04:10:26.905Z,99.59
2023-09-18T04:11:28.870Z,99.58
2023-09-18T04:12:30.893Z,99.48
2023-09-18T04:13:32.815Z,99.72
2023-09-18T04:14:36.680Z,99.78
2023-09-18T04:15:39.043Z,99.91
2023-09-18T04:16:41.146Z,99.15
2023-09-18T04:17:43.128Z,99.15
2023-09-18T04:18:45.734Z,99.09
2023-09-18T04:19:47.679Z,98.87
2023-09-18T04:20:49.740Z,98.63
2023-09-18T04:21:53.958Z,98.55
2023-09-18T04:23:22.566Z,98.36
2023-09-18T04:24:29.565Z,97.76
2023-09-18T04:25:31.510Z,96.81
2023-09-18T04:26:33.941Z,96.76
2023-09-18T04:27:36.051Z,96.68
2023-09-18T04:28:37.956Z,96.52
2023-09-18T04:29:39.902Z,95.98
2023-09-18T04:30:42.095Z,95.45
2023-09-18T04:31:44.534Z,95.20
2023-09-18T04:32:46.799Z,95.05
2023-09-18T04:33:48.971Z,94.96
2023-09-18T04:34:51.141Z,95.04
2023-09-18T04:35:55.251Z,95.34
2023-09-18T04:36:57.298Z,95.80
2023-09-18T04:38:01.051Z,96.26
2023-09-18T04:39:04.605Z,96.37
2023-09-18T04:40:08.630Z,96.30
2023-09-18T04:41:10.629Z,95.81
2023-09-18T04:42:12.766Z,95.53
2023-09-18T04:43:16.856Z,95.44
2023-09-18T04:44:19.002Z,95.59
2023-09-18T04:45:21.206Z,95.46
2023-09-18T04:46:25.588Z,95.48
2023-09-18T04:47:27.667Z,95.83
2023-09-18T04:48:30.614Z,95.93
2023-09-18T04:49:35.713Z,95.82
2023-09-18T04:50:37.844Z,95.65
2023-09-18T04:51:40.148Z,95.23
2023-09-18T04:52:42.179Z,94.36
2023-09-18T04:53:44.439Z,94.07
2023-09-18T04:54:46.706Z,94.23
2023-09-18T04:55:48.809Z,94.23
2023-09-18T04:56:51.157Z,94.02
2023-09-18T04:57:53.108Z,93.88
2023-09-18T04:58:55.183Z,93.34
2023-09-18T05:00:10.152Z,93.32
2023-09-18T05:01:01.543Z,93.30
2023-09-18T05:02:03.707Z,93.47
2023-09-18T05:03:05.886Z,93.54
2023-09-18T05:04:07.953Z,92.54
2023-09-18T05:05:10.236Z,92.57
2023-09-18T05:06:14.889Z,91.80
2023-09-18T05:07:17.196Z,91.26
2023-09-18T05:08:20.372Z,91.70
2023-09-18T05:09:22.417Z,91.81
2023-09-18T05:10:25.516Z,91.35
2023-09-18T05:11:27.620Z,91.05
2023-09-18T05:12:29.770Z,90.67
2023-09-18T05:13:31.765Z,90.74
2023-09-18T05:14:34.260Z,90.89
2023-09-18T05:15:36.345Z,90.95
2023-09-18T05:16:38.410Z,91.12
2023-09-18T05:17:45.951Z,90.35
2023-09-18T05:18:48.304Z,90.22
2023-09-18T05:19:50.879Z,89.76
2023-09-18T05:20:54.758Z,89.33
2023-09-18T05:21:57.259Z,89.16
2023-09-18T05:22:59.616Z,89.07
2023-09-18T05:24:01.704Z,89.20
2023-09-18T05:25:04.965Z,89.17
2023-09-18T05:26:07.169Z,89.03
2023-09-18T05:27:09.581Z,88.63
2023-09-18T05:28:11.611Z,87.90
2023-09-18T05:29:13.742Z,87.33
2023-09-18T05:30:22.102Z,87.07
2023-09-18T05:31:24.123Z,86.66
2023-09-18T05:32:26.426Z,86.46
2023-09-18T05:33:28.636Z,86.70
2023-09-18T05:34:30.685Z,86.82
2023-09-18T05:35:35.072Z,86.49
2023-09-18T05:36:38.787Z,86.27
2023-09-18T05:37:43.900Z,86.02
2023-09-18T05:38:45.987Z,85.76
2023-09-18T05:39:49.268Z,86.00
2023-09-18T05:40:51.393Z,86.21
2023-09-18T05:41:53.300Z,86.15
2023-09-18T05:42:56.036Z,86.11
2023-09-18T05:43:58.084Z,86.29
2023-09-18T05:45:00.141Z,86.20
2023-09-18T05:46:02.800Z,85.82
2023-09-18T05:47:05.438Z,85.63
2023-09-18T05:48:07.758Z,85.03
2023-09-18T05:49:09.767Z,84.37
2023-09-18T05:50:13.229Z,83.93
2023-09-18T05:51:15.231Z,83.37
2023-09-18T05:52:17.196Z,83.16
2023-09-18T05:53:19.234Z,83.03
2023-09-18T05:54:22.432Z,83.02
2023-09-18T05:55:24.453Z,82.52
2023-09-18T05:56:26.639Z,82.10
2023-09-18T05:57:29.845Z,81.39
2023-09-18T05:58:32.428Z,81.62
2023-09-18T05:59:34.469Z,80.54
2023-09-18T06:00:37.309Z,80.39
2023-09-18T06:01:39.318Z,80.53
2023-09-18T06:02:42.612Z,79.98
2023-09-18T06:03:44.885Z,79.28
2023-09-18T06:04:47.211Z,78.93
2023-09-18T06:05:49.382Z,78.48
2023-09-18T06:06:51.677Z,78.03
2023-09-18T06:07:53.744Z,77.42
2023-09-18T06:08:55.851Z,77.10
2023-09-18T06:10:00.566Z,76.37
2023-09-18T06:11:02.517Z,76.36
2023-09-18T06:12:05.419Z,76.31
2023-09-18T06:13:07.441Z,75.66
2023-09-18T06:14:10.584Z,75.35
2023-09-18T06:15:12.546Z,75.07
2023-09-18T06:16:16.159Z,74.46
2023-09-18T06:17:19.235Z,74.24
2023-09-18T06:18:23.369Z,73.96
2023-09-18T06:19:25.473Z,73.12
2023-09-18T06:20:27.678Z,72.21
2023-09-18T06:21:29.624Z,71.54
2023-09-18T06:22:31.550Z,71.12
2023-09-18T06:23:34.575Z,70.87
2023-09-18T06:24:36.821Z,70.73
2023-09-18T06:25:40.572Z,70.35
2023-09-18T06:26:42.679Z,69.87
2023-09-18T06:27:44.753Z,69.52
2023-09-18T06:28:46.745Z,68.99
2023-09-18T06:29:48.668Z,69.34
2023-09-18T06:30:52.910Z,69.20
2023-09-18T06:31:55.074Z,68.64
2023-09-18T06:32:57.864Z,68.64
2023-09-18T06:33:59.904Z,68.19
2023-09-18T06:35:02.211Z,67.94
2023-09-18T06:36:07.602Z,67.78
2023-09-18T06:37:09.761Z,68.49
2023-09-18T06:38:11.700Z,67.95
2023-09-18T06:39:13.892Z,69.64
2023-09-18T06:40:18.839Z,68.98
2023-09-18T06:41:21.148Z,69.69
2023-09-18T06:42:23.690Z,68.61
2023-09-18T06:43:25.618Z,68.09
2023-09-18T06:44:27.713Z,69.46
2023-09-18T06:45:31.577Z,68.60
2023-09-18T06:46:33.951Z,67.42
2023-09-18T06:47:36.105Z,67.61
2023-09-18T06:48:38.305Z,67.34
2023-09-18T06:49:40.510Z,66.50
2023-09-18T06:50:43.219Z,62.28
2023-09-18T06:51:45.322Z,61.40
2023-09-18T06:52:47.295Z,61.10
2023-09-18T06:53:49.433Z,61.22
2023-09-18T06:54:51.775Z,59.43
2023-09-18T06:55:54.402Z,58.25
2023-09-18T06:56:56.471Z,57.00
2023-09-18T06:57:58.900Z,56.64
2023-09-18T06:59:00.933Z,56.18
2023-09-18T07:00:03.966Z,55.84
2023-09-18T07:01:06.207Z,54.46
2023-09-18T07:02:08.627Z,54.28
2023-09-18T07:03:10.857Z,54.20
2023-09-18T07:04:13.197Z,53.63
2023-09-18T07:05:15.606Z,52.75
2023-09-18T07:06:18.188Z,53.06
2023-09-18T07:07:21.119Z,53.45
2023-09-18T07:08:23.190Z,53.53
2023-09-18T07:09:25.293Z,53.01
2023-09-18T07:10:27.573Z,53.31
2023-09-18T07:11:29.601Z,53.93
2023-09-18T07:12:33.258Z,53.90
2023-09-18T07:13:35.309Z,53.26
2023-09-18T07:14:37.341Z,54.86
2023-09-18T07:15:39.502Z,54.86
2023-09-18T07:16:41.596Z,54.76
2023-09-18T07:17:43.668Z,54.39
2023-09-18T07:18:45.732Z,53.72
2023-09-18T07:19:48.354Z,53.72
2023-09-18T07:20:50.704Z,52.86
2023-09-18T07:21:52.999Z,53.37
2023-09-18T07:22:55.085Z,52.66
2023-09-18T07:23:57.106Z,52.87
2023-09-18T07:24:59.036Z,52.24
2023-09-18T07:26:01.054Z,52.12
2023-09-18T07:27:03.436Z,51.77
2023-09-18T07:29:17.917Z,51.59
2023-09-18T07:30:20.152Z,51.58
2023-09-18T07:31:22.263Z,51.15
2023-09-18T07:32:36.864Z,52.09
2023-09-18T07:33:29.243Z,52.03
2023-09-18T07:34:32.478Z,51.40
2023-09-18T07:35:36.507Z,51.84
2023-09-18T07:36:38.629Z,51.42
2023-09-18T07:37:41.567Z,49.52
2023-09-18T07:38:43.541Z,48.99
2023-09-18T07:39:45.532Z,48.79
2023-09-18T07:40:49.306Z,48.60
2023-09-18T07:41:51.314Z,48.58
2023-09-18T07:42:53.676Z,47.66
2023-09-18T07:43:55.581Z,48.26
2023-09-18T07:44:59.325Z,48.51
2023-09-18T07:46:01.771Z,47.80
2023-09-18T07:47:04.310Z,47.64
2023-09-18T07:48:07.702Z,47.82
2023-09-18T07:49:09.949Z,48.12
2023-09-18T07:50:13.510Z,47.92
2023-09-18T07:51:15.711Z,47.41
2023-09-18T07:52:18.210Z,47.56
2023-09-18T07:53:20.681Z,47.29
2023-09-18T07:54:23.030Z,47.20
2023-09-18T07:55:24.960Z,47.23
2023-09-18T07:56:27.165Z,47.10
2023-09-18T07:57:30.391Z,47.42
2023-09-18T07:58:32.310Z,47.46
2023-09-18T07:59:35.226Z,47.26
2023-09-18T08:00:37.808Z,47.22
2023-09-18T08:01:39.917Z,47.02
2023-09-18T08:02:42.346Z,46.84
2023-09-18T08:03:44.731Z,46.77
2023-09-18T08:04:46.934Z,46.72
2023-09-18T08:05:55.336Z,46.86
2023-09-18T08:06:57.503Z,47.49
2023-09-18T08:07:59.414Z,47.65
2023-09-18T08:09:02.591Z,47.34
2023-09-18T08:10:06.157Z,47.13
2023-09-18T08:11:08.843Z,46.89
2023-09-18T08:12:10.957Z,47.21
2023-09-18T08:13:13.689Z,46.59
2023-09-18T08:14:16.045Z,47.70
2023-09-18T08:15:20.781Z,47.05
2023-09-18T08:16:24.026Z,46.94
2023-09-18T08:17:27.301Z,46.76
2023-09-18T08:18:31.521Z,47.08
2023-09-18T08:19:35.358Z,47.24
2023-09-18T08:20:44.093Z,46.72
2023-09-18T08:21:47.678Z,46.45
2023-09-18T08:22:49.717Z,46.42
2023-09-18T08:23:52.072Z,45.52
2023-09-18T08:24:54.111Z,45.77
2023-09-18T08:25:56.344Z,45.77
2023-09-18T08:26:58.339Z,45.47
2023-09-18T08:28:02.254Z,44.99
2023-09-18T08:29:05.114Z,44.67
2023-09-18T08:30:08.909Z,45.54
2023-09-18T08:31:11.067Z,45.47
2023-09-18T08:32:13.335Z,44.26
2023-09-18T08:33:15.462Z,44.32
2023-09-18T08:34:17.717Z,44.76
2023-09-18T08:35:20.539Z,44.78
2023-09-18T08:36:22.989Z,44.91
2023-09-18T08:37:25.008Z,44.39
2023-09-18T08:38:29.293Z,44.06
2023-09-18T08:39:31.776Z,43.89
2023-09-18T08:40:35.661Z,44.12
2023-09-18T08:41:41.684Z,43.54
2023-09-18T08:42:48.604Z,43.54
2023-09-18T08:43:52.799Z,43.55
2023-09-18T08:44:57.553Z,43.26
2023-09-18T08:46:00.362Z,42.81
2023-09-18T08:47:04.119Z,43.01
2023-09-18T08:48:09.310Z,43.31
2023-09-18T08:49:14.268Z,43.47
2023-09-18T08:50:17.952Z,43.40
2023-09-18T08:51:21.771Z,43.93
2023-09-18T08:52:26.401Z,43.94
2023-09-18T08:53:31.858Z,44.09
2023-09-18T08:54:33.991Z,43.91
2023-09-18T08:55:36.643Z,43.64
2023-09-18T08:56:39.221Z,43.71
2023-09-18T08:57:44.980Z,43.70
2023-09-18T08:58:47.926Z,44.02
2023-09-18T08:59:54.377Z,44.22
2023-09-18T09:00:56.949Z,43.73
2023-09-18T09:01:59.816Z,43.22
2023-09-18T09:03:04.429Z,43.54
2023-09-18T09:04:06.450Z,42.97
2023-09-18T09:05:08.589Z,43.12
2023-09-18T09:06:12.764Z,44.04
2023-09-18T09:07:17.232Z,42.67
2023-09-18T09:08:19.438Z,42.74
2023-09-18T09:09:21.935Z,41.45
2023-09-18T09:10:24.245Z,41.39
2023-09-18T09:11:26.352Z,41.65
2023-09-18T09:12:49.178Z,41.83
2023-09-18T09:15:23.359Z,42.85
2023-09-18T09:16:26.697Z,42.16
2023-09-18T09:17:31.796Z,42.41
2023-09-18T09:18:33.949Z,42.20
2023-09-18T09:19:39.034Z,41.82
2023-09-18T09:20:41.521Z,41.17
2023-09-18T09:21:45.200Z,41.44
2023-09-18T09:22:47.278Z,41.59
2023-09-18T09:23:51.953Z,41.71
2023-09-18T09:24:57.774Z,42.40
2023-09-18T09:26:17.212Z,42.26
2023-09-18T09:27:19.722Z,41.34
2023-09-18T09:28:31.552Z,40.73
2023-09-18T09:29:34.368Z,41.53
2023-09-18T09:30:37.330Z,41.74
2023-09-18T09:31:39.819Z,42.00
2023-09-18T09:32:45.894Z,41.94
2023-09-18T09:33:52.934Z,41.79
2023-09-18T09:34:59.542Z,41.28
2023-09-18T09:36:05.001Z,41.70
2023-09-18T09:37:07.276Z,41.95
2023-09-18T09:38:11.141Z,41.95
2023-09-18T09:39:13.501Z,41.46
2023-09-18T09:40:18.918Z,41.16
2023-09-18T09:41:24.119Z,41.29
2023-09-18T09:42:26.711Z,41.36
2023-09-18T09:43:34.091Z,41.64
2023-09-18T09:44:36.821Z,41.40
2023-09-18T09:45:41.700Z,41.97
2023-09-18T09:46:50.010Z,42.13
2023-09-18T09:47:56.940Z,41.59
2023-09-18T09:49:04.649Z,41.08
2023-09-18T09:50:10.918Z,41.10
2023-09-18T09:51:16.822Z,41.08
2023-09-18T09:52:19.514Z,40.44
2023-09-18T09:53:45.241Z,40.68
2023-09-18T09:54:47.596Z,40.47
2023-09-18T09:57:06.769Z,40.76
2023-09-18T09:58:10.845Z,40.83
2023-09-18T09:59:14.538Z,40.81
2023-09-18T10:00:17.109Z,40.66
2023-09-18T10:01:20.172Z,40.78
2023-09-18T10:02:24.221Z,40.28
2023-09-18T10:03:28.365Z,40.60
2023-09-18T10:04:34.437Z,40.63
2023-09-18T10:05:42.805Z,40.45
2023-09-18T10:06:54.575Z,41.02
2023-09-18T10:07:58.252Z,40.78
2023-09-18T10:09:02.630Z,41.14
2023-09-18T10:10:08.406Z,41.52
2023-09-18T10:11:20.838Z,40.31
2023-09-18T10:12:20.078Z,40.08
2023-09-18T10:13:35.101Z,40.13
2023-09-18T10:14:55.589Z,40.29
2023-09-18T10:15:44.535Z,40.30
2023-09-18T10:16:53.376Z,40.76
2023-09-18T10:17:58.836Z,40.57
2023-09-18T10:19:16.576Z,40.37
2023-09-18T10:20:19.694Z,40.49
2023-09-18T10:21:46.443Z,40.40
2023-09-18T10:24:08.240Z,40.61
2023-09-18T10:25:21.918Z,40.72
2023-09-18T10:26:26.284Z,40.93
2023-09-18T10:27:30.164Z,41.07
2023-09-18T10:28:32.850Z,40.47
2023-09-18T10:29:37.429Z,40.84
2023-09-18T10:30:41.176Z,41.45
2023-09-18T10:31:45.007Z,41.22
2023-09-18T10:32:47.161Z,41.51
2023-09-18T10:33:51.778Z,41.12
2023-09-18T10:34:54.336Z,41.29
2023-09-18T10:35:57.382Z,41.41
2023-09-18T10:37:00.754Z,41.32
2023-09-18T10:38:05.946Z,41.25
2023-09-18T10:39:10.611Z,41.71
2023-09-18T10:40:13.449Z,41.67
2023-09-18T10:41:19.073Z,41.26
2023-09-18T10:42:23.004Z,41.60
2023-09-18T10:43:24.968Z,41.61
2023-09-18T10:44:27.214Z,41.44
2023-09-18T10:45:29.960Z,41.76
2023-09-18T10:46:32.557Z,41.68
2023-09-18T10:47:35.817Z,41.73
2023-09-18T10:48:41.936Z,41.25
2023-09-18T10:49:45.106Z,41.16
2023-09-18T10:50:47.687Z,41.70
2023-09-18T10:51:55.334Z,42.18
2023-09-18T10:53:01.004Z,42.51
2023-09-18T10:54:03.871Z,42.22
2023-09-18T10:55:07.346Z,41.96
2023-09-18T10:56:10.336Z,42.54
2023-09-18T10:57:12.733Z,42.23
2023-09-18T10:58:18.490Z,42.37
2023-09-18T10:59:23.857Z,42.27
2023-09-18T11:00:28.833Z,42.18
2023-09-18T11:01:31.328Z,42.11
2023-09-18T11:02:36.249Z,42.36
2023-09-18T11:03:39.488Z,41.71
2023-09-18T11:04:43.679Z,42.20
2023-09-18T11:05:47.260Z,42.01
2023-09-18T11:06:59.558Z,41.97
2023-09-18T11:08:34.332Z,41.81
2023-09-18T11:09:43.396Z,41.86
2023-09-18T11:11:08.895Z,41.26
2023-09-18T11:12:13.456Z,41.20
2023-09-18T11:13:19.253Z,41.40
2023-09-18T11:14:21.259Z,41.59
2023-09-18T11:15:31.863Z,41.62
2023-09-18T11:16:37.259Z,41.32
2023-09-18T11:17:41.480Z,41.51
2023-09-18T11:18:47.577Z,41.64
2023-09-18T11:19:49.676Z,41.59
2023-09-18T11:21:12.269Z,42.25
2023-09-18T11:22:14.312Z,41.92
2023-09-18T11:23:17.984Z,41.15
2023-09-18T11:24:23.177Z,41.08
2023-09-18T11:25:38.709Z,41.04
2023-09-18T11:26:41.985Z,41.17
2023-09-18T11:27:55.185Z,41.03
2023-09-18T11:28:59.807Z,41.20
2023-09-18T11:30:02.246Z,41.17
2023-09-18T11:31:05.226Z,40.90
2023-09-18T11:32:08.500Z,41.33
2023-09-18T11:33:11.212Z,41.05
2023-09-18T11:34:27.869Z,40.79
2023-09-18T11:35:30.399Z,40.94
2023-09-18T11:36:35.292Z,40.99
2023-09-18T11:37:37.383Z,41.32
2023-09-18T11:38:59.714Z,41.15
2023-09-18T11:40:01.097Z,41.38
2023-09-18T11:41:26.479Z,41.37
2023-09-18T11:42:30.754Z,41.28
2023-09-18T11:43:33.505Z,41.29
2023-09-18T11:44:38.188Z,41.10
2023-09-18T11:45:43.398Z,40.77
2023-09-18T11:46:47.637Z,41.37
2023-09-18T11:47:51.058Z,40.93
2023-09-18T11:48:53.362Z,41.47
2023-09-18T11:49:59.966Z,41.76
2023-09-18T11:51:02.936Z,41.23
2023-09-18T11:52:06.468Z,40.17
2023-09-18T11:53:09.016Z,40.85
2023-09-18T11:54:11.457Z,41.33
2023-09-18T11:55:14.026Z,41.29
2023-09-18T11:56:19.158Z,40.92
2023-09-18T11:57:23.046Z,39.97
2023-09-18T11:58:25.172Z,40.93
2023-09-18T11:59:37.986Z,40.07
2023-09-18T12:00:41.009Z,40.46
2023-09-18T12:01:43.397Z,41.27
2023-09-18T12:02:45.620Z,41.20
2023-09-18T12:03:56.075Z,40.83
2023-09-18T12:04:58.144Z,40.87
2023-09-18T12:06:03.054Z,40.75
2023-09-18T12:07:06.041Z,40.34
2023-09-18T12:08:08.371Z,39.94
2023-09-18T12:09:14.363Z,39.70
2023-09-18T12:10:19.306Z,40.10
2023-09-18T12:11:23.639Z,40.42
2023-09-18T12:12:28.717Z,40.60
2023-09-18T12:13:32.094Z,41.69
2023-09-18T12:14:37.047Z,41.30
2023-09-18T12:15:39.307Z,41.89
2023-09-18T12:16:43.751Z,41.95
2023-09-18T12:17:47.268Z,41.63
2023-09-18T12:18:50.307Z,42.06
2023-09-18T12:19:54.039Z,41.98
2023-09-18T12:20:58.906Z,41.71
2023-09-18T12:22:01.796Z,41.62
2023-09-18T12:23:04.393Z,41.46
2023-09-18T12:24:06.693Z,41.55
2023-09-18T12:25:12.141Z,41.68
2023-09-18T12:26:16.591Z,41.55
2023-09-18T12:27:20.987Z,41.07
2023-09-18T12:28:23.285Z,40.94
2023-09-18T12:29:25.519Z,40.22
2023-09-18T12:30:27.948Z,40.03
2023-09-18T12:31:32.182Z,40.95
2023-09-18T12:32:41.289Z,40.37
2023-09-18T12:33:45.064Z,40.70
2023-09-18T12:34:47.302Z,41.37
2023-09-18T12:35:52.710Z,41.27
2023-09-18T12:36:55.231Z,40.54
2023-09-18T12:39:10.396Z,41.71
2023-09-18T12:40:30.907Z,41.80
2023-09-18T12:41:33.650Z,41.33
2023-09-18T12:42:39.730Z,41.10
2023-09-18T12:43:43.392Z,41.28
2023-09-18T12:44:51.277Z,40.40
2023-09-18T12:45:55.774Z,40.27
2023-09-18T12:47:01.331Z,41.18
2023-09-18T12:48:04.583Z,40.25
2023-09-18T12:49:18.753Z,39.82
2023-09-18T12:50:21.284Z,40.29
2023-09-18T12:51:31.119Z,42.10
2023-09-18T12:52:33.302Z,41.43
2023-09-18T12:53:37.636Z,40.34
2023-09-18T12:54:46.597Z,40.35
2023-09-18T12:55:49.853Z,39.96
2023-09-18T12:56:52.269Z,40.18
2023-09-18T12:57:54.547Z,39.71
2023-09-18T12:59:11.683Z,40.45
2023-09-18T13:00:12.795Z,40.34
2023-09-18T13:01:17.381Z,40.54
2023-09-18T13:02:19.644Z,40.07
2023-09-18T13:03:24.575Z,41.24
2023-09-18T13:04:26.959Z,40.88
2023-09-18T13:05:29.452Z,40.78
2023-09-18T13:06:32.849Z,40.99
2023-09-18T13:07:38.547Z,40.91
2023-09-18T13:08:43.254Z,40.55
2023-09-18T13:10:06.624Z,41.02
2023-09-18T13:11:09.452Z,41.85
2023-09-18T13:12:11.490Z,41.58
2023-09-18T13:13:19.444Z,40.79
2023-09-18T13:14:25.216Z,41.33
2023-09-18T13:15:29.253Z,41.65
2023-09-18T13:16:31.639Z,42.04
2023-09-18T13:18:51.424Z,40.02
2023-09-18T13:19:53.495Z,39.99
2023-09-18T13:20:58.695Z,40.53
2023-09-18T13:22:02.686Z,41.43
2023-09-18T13:23:05.628Z,40.71
2023-09-18T13:24:10.288Z,40.99
2023-09-18T13:25:16.652Z,40.31
2023-09-18T13:26:18.982Z,40.61
2023-09-18T13:27:20.971Z,40.59
2023-09-18T13:28:22.935Z,40.36
2023-09-18T13:29:25.671Z,40.38
2023-09-18T13:30:28.799Z,40.78
2023-09-18T13:31:30.831Z,40.48
2023-09-18T13:32:41.248Z,40.82
2023-09-18T13:33:45.050Z,41.01
2023-09-18T13:34:47.238Z,40.42
2023-09-18T13:35:50.125Z,40.83
2023-09-18T13:36:52.289Z,41.99
2023-09-18T13:37:54.201Z,41.35
2023-09-18T13:38:56.146Z,41.61
2023-09-18T13:40:00.236Z,41.79
2023-09-18T13:41:03.179Z,41.99
2023-09-18T13:42:06.104Z,41.69
2023-09-18T13:43:12.096Z,40.91